createdAt,value
2022-08-26T00:04:38.591Z,5.95
2022-08-26T00:09:42.612Z,6.10
2022-08-26T00:14:49.166Z,6.47
2022-08-26T00:19:53.776Z,6.90
2022-08-26T00:24:58.606Z,6.57
2022-08-26T00:30:06.846Z,6.22
2022-08-26T00:35:13.289Z,6.95
2022-08-26T00:40:22.632Z,7.40
2022-08-26T00:45:27.387Z,6.50
2022-08-26T00:50:32.603Z,7.38
2022-08-26T00:55:39.995Z,7.30
2022-08-26T01:00:45.248Z,7.78
2022-08-26T01:05:51.930Z,7.50
2022-08-26T01:10:59.859Z,7.43
2022-08-26T01:16:06.368Z,8.32
2022-08-26T01:21:18.132Z,7.40
2022-08-26T01:26:29.768Z,7.85
2022-08-26T01:31:46.432Z,7.40
2022-08-26T01:36:52.773Z,7.88
2022-08-26T01:42:02.909Z,8.07
2022-08-26T01:47:07.784Z,8.40
2022-08-26T01:52:14.516Z,8.20
2022-08-26T01:57:17.022Z,9.15
2022-08-26T02:02:21.958Z,9.77
2022-08-26T02:07:27.352Z,8.40
2022-08-26T02:12:30.787Z,9.63
2022-08-26T02:17:41.045Z,9.48
2022-08-26T02:22:45.239Z,9.68
2022-08-26T02:27:47.650Z,10.23
2022-08-26T02:32:52.157Z,10.20
2022-08-26T02:37:59.199Z,10.15
2022-08-26T02:43:01.065Z,9.55
2022-08-26T02:48:13.606Z,10.25
2022-08-26T02:53:25.090Z,10.10
2022-08-26T02:58:30.211Z,10.57
2022-08-26T03:03:33.752Z,10.98
2022-08-26T03:08:36.493Z,9.50
2022-08-26T03:13:39.908Z,10.98
2022-08-26T03:18:42.010Z,12.02
2022-08-26T03:23:46.338Z,11.23
2022-08-26T03:29:06.534Z,11.32
2022-08-26T03:34:11.260Z,11.27
2022-08-26T03:39:16.104Z,11.80
2022-08-26T03:44:22.098Z,12.40
2022-08-26T03:49:32.170Z,11.27
2022-08-26T03:54:36.582Z,12.57
2022-08-26T03:59:41.953Z,12.27
2022-08-26T04:04:50.386Z,10.98
2022-08-26T04:10:02.162Z,11.60
2022-08-26T04:15:12.547Z,11.30
2022-08-26T04:20:16.236Z,11.98
2022-08-26T04:25:21.289Z,10.65
2022-08-26T04:30:32.417Z,11.65
2022-08-26T04:35:37.116Z,12.35
2022-08-26T04:40:46.901Z,11.73
2022-08-26T04:45:50.816Z,11.95
2022-08-26T04:50:55.854Z,11.50
2022-08-26T04:55:57.557Z,11.55
2022-08-26T05:00:59.865Z,11.45
2022-08-26T05:06:05.510Z,10.65
2022-08-26T05:11:07.813Z,11.13
2022-08-26T05:16:13.919Z,11.85
2022-08-26T05:21:23.605Z,12.00
2022-08-26T05:26:29.335Z,12.93
2022-08-26T05:31:32.336Z,12.57
2022-08-26T05:36:35.715Z,12.60
2022-08-26T05:41:42.948Z,13.70
2022-08-26T05:46:51.252Z,13.13
2022-08-26T05:51:53.060Z,12.98
2022-08-26T05:56:54.761Z,13.70
2022-08-26T06:01:57.671Z,14.68
2022-08-26T06:07:01.048Z,13.77
2022-08-26T06:12:04.059Z,14.80
2022-08-26T06:17:11.047Z,15.82
2022-08-26T06:22:35.410Z,15.63
2022-08-26T06:27:42.552Z,14.73
2022-08-26T06:32:49.447Z,14.38
2022-08-26T06:37:53.443Z,15.20
2022-08-26T06:42:58.017Z,14.98
2022-08-26T06:48:02.163Z,15.43
2022-08-26T06:53:04.662Z,14.82
2022-08-26T06:58:09.450Z,15.45
2022-08-26T07:03:16.184Z,15.10
2022-08-26T07:08:22.342Z,15.15
2022-08-26T07:13:30.673Z,14.23
2022-08-26T07:18:36.897Z,14.00
2022-08-26T07:23:46.976Z,14.45
2022-08-26T07:28:51.364Z,13.52
2022-08-26T07:33:59.947Z,12.77
2022-08-26T07:39:06.941Z,14.70
2022-08-26T07:44:11.009Z,14.15
2022-08-26T07:49:23.076Z,12.75
2022-08-26T07:54:27.336Z,13.60
2022-08-26T07:59:31.843Z,13.07
2022-08-26T08:04:38.536Z,15.07
2022-08-26T08:09:45.371Z,12.18
2022-08-26T08:14:50.257Z,13.55
2022-08-26T08:19:57.474Z,13.38
2022-08-26T08:25:00.944Z,12.85
2022-08-26T08:30:10.850Z,12.95
2022-08-26T08:35:17.473Z,14.95
2022-08-26T08:40:21.815Z,13.73
2022-08-26T08:45:41.960Z,15.25
2022-08-26T08:50:49.431Z,14.73
2022-08-26T08:56:08.713Z,14.55
2022-08-26T09:01:22.941Z,14.20
2022-08-26T09:06:27.769Z,15.73
2022-08-26T09:11:30.254Z,14.18
2022-08-26T09:16:59.425Z,14.52
2022-08-26T09:22:05.779Z,13.93
2022-08-26T09:27:36.574Z,16.40
2022-08-26T09:32:44.121Z,16.35
2022-08-26T09:38:00.864Z,14.10
2022-08-26T09:43:06.614Z,13.27
2022-08-26T09:48:14.241Z,12.02
2022-08-26T09:53:28.456Z,13.95
2022-08-26T09:58:39.513Z,16.65
2022-08-26T10:03:45.822Z,16.13
2022-08-26T10:08:55.307Z,17.30
2022-08-26T10:14:08.452Z,17.50
2022-08-26T10:19:15.852Z,15.95
2022-08-26T10:24:26.783Z,17.33
2022-08-26T10:29:34.333Z,18.52
2022-08-26T10:34:38.656Z,17.73
2022-08-26T10:39:51.881Z,17.65
2022-08-26T10:45:11.965Z,19.25
2022-08-26T10:50:23.208Z,35.15
2022-08-26T10:55:36.054Z,20.40
2022-08-26T11:01:01.261Z,17.50
2022-08-26T11:06:19.087Z,15.48
2022-08-26T11:11:42.375Z,16.15
2022-08-26T11:16:49.756Z,16.08
2022-08-26T11:22:33.058Z,18.80
2022-08-26T11:27:41.565Z,17.23
2022-08-26T11:33:00.166Z,17.63
2022-08-26T11:38:25.586Z,17.80
2022-08-26T11:43:30.259Z,16.73
2022-08-26T11:48:39.972Z,16.00
2022-08-26T11:53:47.499Z,16.60
2022-08-26T11:58:49.934Z,16.50
2022-08-26T12:03:52.591Z,15.20
2022-08-26T12:09:02.352Z,13.35
2022-08-26T12:14:09.019Z,13.85
2022-08-26T12:19:32.842Z,12.48
2022-08-26T12:24:43.851Z,13.30
2022-08-26T12:30:10.138Z,12.98
2022-08-26T12:35:16.858Z,11.45
2022-08-26T12:40:33.005Z,11.13
2022-08-26T12:45:43.121Z,12.65
2022-08-26T12:50:50.541Z,10.25
2022-08-26T12:56:00.238Z,10.82
2022-08-26T13:01:08.377Z,7.82
2022-08-26T13:06:25.916Z,8.25
2022-08-26T13:11:29.140Z,8.82
2022-08-26T13:16:33.880Z,9.23
2022-08-26T13:21:43.021Z,10.30
2022-08-26T13:26:46.552Z,10.63
2022-08-26T13:31:51.942Z,9.80
2022-08-26T13:36:56.279Z,10.27
2022-08-26T13:41:58.355Z,9.57
2022-08-26T13:47:00.165Z,9.30
2022-08-26T13:52:03.695Z,9.55
2022-08-26T13:57:08.158Z,9.30
2022-08-26T14:02:10.046Z,7.25
2022-08-26T14:07:11.926Z,6.78
2022-08-26T14:12:16.623Z,7.22
2022-08-26T14:17:21.377Z,6.68
2022-08-26T14:22:23.185Z,6.57
2022-08-26T14:27:25.510Z,6.57
2022-08-26T14:32:29.984Z,5.78
2022-08-26T14:37:32.850Z,6.10
2022-08-26T14:42:34.834Z,5.43
2022-08-26T14:47:41.470Z,5.45
2022-08-26T14:53:08.131Z,5.57
2022-08-26T14:58:13.728Z,4.85
2022-08-26T15:08:24.568Z,3.28
2022-08-26T15:13:26.372Z,3.90
2022-08-26T15:18:31.708Z,3.72
2022-08-26T15:23:39.321Z,3.17
2022-08-26T15:28:53.084Z,2.58
2022-08-26T15:33:56.446Z,2.70
2022-08-26T15:39:00.290Z,3.05
2022-08-26T15:44:03.668Z,2.53
2022-08-26T15:49:08.088Z,2.78
2022-08-26T15:54:22.105Z,2.58
2022-08-26T15:59:26.905Z,2.10
2022-08-26T16:04:31.181Z,2.45
2022-08-26T16:09:33.058Z,2.40
2022-08-26T16:14:40.587Z,2.10
2022-08-26T16:19:44.623Z,2.30
2022-08-26T16:24:49.005Z,1.95
2022-08-26T16:29:51.067Z,2.33
2022-08-26T16:34:56.663Z,2.70
2022-08-26T16:40:01.321Z,1.98
2022-08-26T16:45:08.787Z,2.28
2022-08-26T16:50:14.657Z,2.28
2022-08-26T16:55:16.660Z,1.92
2022-08-26T17:00:28.033Z,2.90
2022-08-26T17:05:29.937Z,3.28
2022-08-26T17:10:35.053Z,3.22
2022-08-26T17:15:37.044Z,3.35
2022-08-26T17:20:41.737Z,3.20
2022-08-26T17:25:43.860Z,3.75
2022-08-26T17:30:48.117Z,3.35
2022-08-26T17:35:56.458Z,3.63
2022-08-26T17:41:00.204Z,3.20
2022-08-26T17:46:07.010Z,3.10
2022-08-26T17:51:14.010Z,3.10
2022-08-26T17:56:24.202Z,3.75
2022-08-26T18:01:28.592Z,2.97
2022-08-26T18:06:33.027Z,3.10
2022-08-26T18:11:37.243Z,3.70
2022-08-26T18:16:41.626Z,4.20
2022-08-26T18:21:44.058Z,3.03
2022-08-26T18:26:51.676Z,3.92
2022-08-26T18:31:58.218Z,3.10
2022-08-26T18:36:59.990Z,3.33
2022-08-26T18:42:07.237Z,3.67
2022-08-26T18:47:12.144Z,3.08
2022-08-26T18:52:18.089Z,2.65
2022-08-26T18:57:20.914Z,2.75
2022-08-26T19:02:24.969Z,3.17
2022-08-26T19:07:29.685Z,3.38
2022-08-26T19:12:33.562Z,3.10
2022-08-26T19:17:40.124Z,3.20
2022-08-26T19:22:41.849Z,3.05
2022-08-26T19:27:45.684Z,2.92
2022-08-26T19:32:52.826Z,2.97
2022-08-26T19:37:57.114Z,3.10
2022-08-26T19:43:01.096Z,3.05
2022-08-26T19:48:06.229Z,2.20
2022-08-26T19:53:12.495Z,3.10
2022-08-26T19:58:16.539Z,2.78
2022-08-26T20:03:18.354Z,3.30
2022-08-26T20:08:22.814Z,2.45
2022-08-26T20:13:26.958Z,2.60
2022-08-26T20:18:49.473Z,2.03
2022-08-26T20:23:51.744Z,1.92
2022-08-26T20:28:56.273Z,2.40
2022-08-26T20:34:01.516Z,2.10
2022-08-26T20:39:10.823Z,1.80
2022-08-26T20:44:16.679Z,1.83
2022-08-26T20:49:18.746Z,1.70
2022-08-26T20:54:27.527Z,1.88
2022-08-26T20:59:32.592Z,1.92
2022-08-26T21:04:36.667Z,2.28
2022-08-26T21:09:41.330Z,1.92
2022-08-26T21:14:49.860Z,2.08
2022-08-26T21:19:54.064Z,1.98
2022-08-26T21:24:56.473Z,2.25
2022-08-26T21:30:00.741Z,2.30
2022-08-26T21:35:05.685Z,1.52
2022-08-26T21:40:11.282Z,2.15
2022-08-26T21:45:13.135Z,1.88
2022-08-26T21:50:14.940Z,1.35
2022-08-26T21:55:19.190Z,1.38
2022-08-26T22:00:23.178Z,1.50
2022-08-26T22:05:27.321Z,2.03
2022-08-26T22:10:32.014Z,1.58
2022-08-26T22:15:35.592Z,1.70
2022-08-26T22:20:37.439Z,1.55
2022-08-26T22:25:39.336Z,2.20
2022-08-26T22:30:44.337Z,1.38
2022-08-26T22:35:52.775Z,1.60
2022-08-26T22:41:00.247Z,1.55
2022-08-26T22:46:04.286Z,1.48
2022-08-26T22:51:06.486Z,1.83
2022-08-26T22:56:13.801Z,1.40
2022-08-26T23:01:16.965Z,1.33
2022-08-26T23:06:18.891Z,1.30
2022-08-26T23:11:24.060Z,1.30
2022-08-26T23:16:25.892Z,1.70
2022-08-26T23:21:29.992Z,1.40
2022-08-26T23:26:35.003Z,1.65
2022-08-26T23:31:38.530Z,1.25
2022-08-26T23:36:42.425Z,1.40
2022-08-26T23:41:46.290Z,1.13
2022-08-26T23:46:49.315Z,1.73
2022-08-26T23:52:12.874Z,1.10
2022-08-26T23:57:16.616Z,1.17
